createdAt,value
2022-08-28T00:00:23.685Z,2.90
2022-08-28T00:01:23.658Z,2.80
2022-08-28T00:02:23.721Z,2.50
2022-08-28T00:03:23.694Z,2.90
2022-08-28T00:04:24.509Z,2.90
2022-08-28T00:05:23.624Z,2.50
2022-08-28T00:06:23.711Z,2.70
2022-08-28T00:07:23.659Z,2.40
2022-08-28T00:08:24.387Z,3.00
2022-08-28T00:09:23.557Z,2.40
2022-08-28T00:10:23.607Z,2.40
2022-08-28T00:11:23.560Z,2.90
2022-08-28T00:12:24.890Z,3.10
2022-08-28T00:13:23.813Z,3.00
2022-08-28T00:14:23.560Z,3.20
2022-08-28T00:15:23.531Z,3.00
2022-08-28T00:16:23.563Z,3.20
2022-08-28T00:17:23.529Z,2.90
2022-08-28T00:18:23.456Z,3.10
2022-08-28T00:19:23.498Z,3.00
2022-08-28T00:20:23.445Z,3.30
2022-08-28T00:21:23.444Z,2.60
2022-08-28T00:22:23.559Z,3.00
2022-08-28T00:23:23.407Z,2.80
2022-08-28T00:24:23.488Z,3.20
2022-08-28T00:25:23.380Z,2.90
2022-08-28T00:26:23.388Z,3.20
2022-08-28T00:27:24.341Z,2.80
2022-08-28T00:28:24.585Z,2.80
2022-08-28T00:29:23.425Z,3.00
2022-08-28T00:30:23.340Z,3.30
2022-08-28T00:31:23.386Z,3.50
2022-08-28T00:32:23.349Z,3.30
2022-08-28T00:33:23.388Z,2.70
2022-08-28T00:34:32.048Z,2.90
2022-08-28T00:35:23.312Z,2.70
2022-08-28T00:36:23.314Z,2.60
2022-08-28T00:37:24.615Z,2.80
2022-08-28T00:38:23.236Z,2.70
2022-08-28T00:39:23.856Z,2.90
2022-08-28T00:40:30.594Z,2.60
2022-08-28T00:41:24.756Z,2.80
2022-08-28T00:42:23.214Z,2.80
2022-08-28T00:43:23.246Z,2.70
2022-08-28T00:44:23.206Z,2.70
2022-08-28T00:45:23.535Z,2.70
2022-08-28T00:46:23.303Z,3.00
2022-08-28T00:47:24.006Z,2.40
2022-08-28T00:48:23.114Z,2.90
2022-08-28T00:49:23.171Z,2.90
2022-08-28T00:50:26.076Z,2.70
2022-08-28T00:51:23.171Z,2.90
2022-08-28T00:52:23.183Z,3.40
2022-08-28T00:53:27.079Z,2.80
2022-08-28T00:54:23.097Z,2.80
2022-08-28T00:55:23.199Z,3.20
2022-08-28T00:56:23.143Z,3.00
2022-08-28T00:57:23.091Z,3.10
2022-08-28T00:58:25.031Z,3.50
2022-08-28T00:59:23.013Z,3.30
2022-08-28T01:00:23.118Z,3.10
2022-08-28T01:01:23.069Z,2.80
2022-08-28T01:02:23.103Z,2.80
2022-08-28T01:03:25.118Z,2.60
2022-08-28T01:04:23.056Z,2.80
2022-08-28T01:05:22.930Z,3.10
2022-08-28T01:06:23.340Z,3.60
2022-08-28T01:07:22.935Z,3.00
2022-08-28T01:08:23.115Z,3.10
2022-08-28T01:09:22.912Z,2.90
2022-08-28T01:10:23.294Z,2.70
2022-08-28T01:11:23.209Z,2.90
2022-08-28T01:12:22.886Z,3.20
2022-08-28T01:13:22.845Z,3.10
2022-08-28T01:14:22.896Z,3.00
2022-08-28T01:15:22.902Z,3.30
2022-08-28T01:16:23.074Z,2.90
2022-08-28T01:17:23.867Z,2.90
2022-08-28T01:18:22.985Z,2.80
2022-08-28T01:19:22.894Z,2.80
2022-08-28T01:20:23.546Z,3.10
2022-08-28T01:21:22.872Z,3.00
2022-08-28T01:22:23.832Z,2.70
2022-08-28T01:23:22.753Z,2.70
2022-08-28T01:24:23.583Z,2.70
2022-08-28T01:25:22.885Z,3.00
2022-08-28T01:26:23.028Z,3.00
2022-08-28T01:27:22.731Z,2.60
2022-08-28T01:28:23.079Z,2.60
2022-08-28T01:29:22.703Z,2.80
2022-08-28T01:30:22.829Z,3.20
2022-08-28T01:31:22.802Z,3.90
2022-08-28T01:32:22.680Z,3.00
2022-08-28T01:33:28.013Z,3.10
2022-08-28T01:34:22.782Z,3.20
2022-08-28T01:35:22.659Z,2.60
2022-08-28T01:36:22.590Z,3.00
2022-08-28T01:37:22.621Z,2.90
2022-08-28T01:38:26.767Z,3.00
2022-08-28T01:39:22.604Z,2.70
2022-08-28T01:40:22.636Z,2.60
2022-08-28T01:41:22.514Z,3.50
2022-08-28T01:42:22.656Z,2.90
2022-08-28T01:43:22.546Z,2.90
2022-08-28T01:44:23.522Z,2.60
2022-08-28T01:45:22.489Z,2.80
2022-08-28T01:46:22.590Z,2.80
2022-08-28T01:47:22.533Z,3.00
2022-08-28T01:48:22.444Z,2.50
2022-08-28T01:49:22.499Z,2.80
2022-08-28T01:50:22.440Z,3.50
2022-08-28T01:51:24.612Z,3.00
2022-08-28T01:52:26.257Z,3.10
2022-08-28T01:53:24.956Z,2.80
2022-08-28T01:54:22.373Z,2.60
2022-08-28T01:55:22.370Z,2.70
2022-08-28T01:56:22.367Z,2.50
2022-08-28T01:57:22.980Z,2.90
2022-08-28T01:58:22.657Z,2.60
2022-08-28T01:59:22.323Z,3.10
2022-08-28T02:00:23.145Z,2.90
2022-08-28T02:01:22.310Z,3.10
2022-08-28T02:02:22.330Z,2.80
2022-08-28T02:03:22.350Z,2.80
2022-08-28T02:04:23.071Z,2.70
2022-08-28T02:05:22.321Z,2.50
2022-08-28T02:06:22.970Z,3.00
2022-08-28T02:07:22.332Z,2.80
2022-08-28T02:08:22.229Z,2.70
2022-08-28T02:09:22.334Z,2.30
2022-08-28T02:10:22.281Z,2.70
2022-08-28T02:11:22.197Z,2.30
2022-08-28T02:12:22.173Z,2.90
2022-08-28T02:13:22.164Z,2.70
2022-08-28T02:14:22.124Z,2.40
2022-08-28T02:15:23.646Z,3.10
2022-08-28T02:16:23.004Z,3.20
2022-08-28T02:17:22.188Z,2.80
2022-08-28T02:18:22.965Z,2.40
2022-08-28T02:19:22.080Z,2.80
2022-08-28T02:20:22.085Z,2.80
2022-08-28T02:21:22.077Z,3.00
2022-08-28T02:22:22.143Z,2.80
2022-08-28T02:23:22.485Z,2.80
2022-08-28T02:24:22.045Z,2.40
2022-08-28T02:25:22.102Z,3.40
2022-08-28T02:26:22.050Z,3.00
2022-08-28T02:27:22.261Z,2.80
2022-08-28T02:28:22.532Z,3.30
2022-08-28T02:29:22.069Z,2.70
2022-08-28T02:30:21.978Z,2.90
2022-08-28T02:31:22.161Z,3.10
2022-08-28T02:32:21.960Z,2.70
2022-08-28T02:33:22.028Z,3.00
2022-08-28T02:34:21.986Z,2.90
2022-08-28T02:35:21.952Z,2.90
2022-08-28T02:36:21.901Z,3.40
2022-08-28T02:37:21.924Z,2.90
2022-08-28T02:38:21.901Z,2.70
2022-08-28T02:39:22.341Z,2.90
2022-08-28T02:40:22.054Z,2.90
2022-08-28T02:41:21.842Z,3.20
2022-08-28T02:42:23.565Z,2.90
2022-08-28T02:43:22.529Z,3.20
2022-08-28T02:44:21.787Z,3.60
2022-08-28T02:45:23.983Z,3.00
2022-08-28T02:46:21.919Z,3.10
2022-08-28T02:47:21.801Z,2.90
2022-08-28T02:48:21.818Z,2.90
2022-08-28T02:49:21.743Z,3.50
2022-08-28T02:50:21.767Z,3.00
2022-08-28T02:51:21.740Z,3.00
2022-08-28T02:52:21.771Z,2.80
2022-08-28T02:53:21.700Z,2.90
2022-08-28T02:54:21.684Z,3.10
2022-08-28T02:55:21.682Z,2.80
2022-08-28T02:56:21.664Z,2.90
2022-08-28T02:57:21.810Z,3.10
2022-08-28T02:58:21.794Z,2.80
2022-08-28T02:59:21.646Z,3.10
2022-08-28T03:00:21.608Z,3.00
2022-08-28T03:01:21.683Z,3.30
2022-08-28T03:02:21.724Z,2.80
2022-08-28T03:03:21.875Z,3.30
2022-08-28T03:04:21.599Z,2.60
2022-08-28T03:05:21.605Z,2.60
2022-08-28T03:06:21.609Z,2.60
2022-08-28T03:07:21.549Z,3.40
2022-08-28T03:08:21.604Z,2.40
2022-08-28T03:09:21.735Z,3.00
2022-08-28T03:10:21.703Z,3.10
2022-08-28T03:11:22.492Z,3.00
2022-08-28T03:12:21.482Z,2.80
2022-08-28T03:13:25.081Z,2.30
2022-08-28T03:14:21.572Z,2.70
2022-08-28T03:15:21.458Z,2.70
2022-08-28T03:16:23.994Z,2.80
2022-08-28T03:17:21.423Z,3.10
2022-08-28T03:18:21.468Z,2.80
2022-08-28T03:19:21.396Z,2.90
2022-08-28T03:20:21.672Z,3.00
2022-08-28T03:21:22.485Z,2.90
2022-08-28T03:22:21.357Z,3.00
2022-08-28T03:23:21.383Z,3.40
2022-08-28T03:24:21.427Z,2.90
2022-08-28T03:25:21.357Z,3.40
2022-08-28T03:26:21.313Z,3.00
2022-08-28T03:27:21.339Z,3.20
2022-08-28T03:28:21.300Z,3.40
2022-08-28T03:29:21.956Z,3.10
2022-08-28T03:30:21.283Z,3.00
2022-08-28T03:31:21.405Z,3.30
2022-08-28T03:32:21.401Z,3.10
2022-08-28T03:33:21.331Z,3.20
2022-08-28T03:34:21.412Z,3.50
2022-08-28T03:35:21.256Z,2.90
2022-08-28T03:36:21.262Z,2.60
2022-08-28T03:37:21.952Z,2.80
2022-08-28T03:38:21.498Z,2.80
2022-08-28T03:39:21.257Z,3.10
2022-08-28T03:40:21.216Z,2.80
2022-08-28T03:41:21.219Z,3.00
2022-08-28T03:42:21.186Z,3.20
2022-08-28T03:43:21.222Z,3.00
2022-08-28T03:44:21.174Z,3.60
2022-08-28T03:45:24.518Z,3.10
2022-08-28T03:46:21.197Z,3.50
2022-08-28T03:47:21.213Z,3.60
2022-08-28T03:48:21.155Z,3.00
2022-08-28T03:49:21.053Z,3.00
2022-08-28T03:50:21.195Z,3.20
2022-08-28T03:51:24.625Z,3.00
2022-08-28T03:52:21.142Z,3.10
2022-08-28T03:53:21.081Z,3.20
2022-08-28T03:54:21.280Z,2.80
2022-08-28T03:55:21.093Z,3.00
2022-08-28T03:56:21.485Z,2.90
2022-08-28T03:57:22.058Z,3.40
2022-08-28T03:58:20.985Z,3.40
2022-08-28T03:59:21.049Z,3.20
2022-08-28T04:00:21.100Z,2.90
2022-08-28T04:01:21.000Z,3.00
2022-08-28T04:02:20.936Z,3.30
2022-08-28T04:03:21.039Z,3.20
2022-08-28T04:04:20.907Z,3.00
2022-08-28T04:05:20.959Z,2.80
2022-08-28T04:06:20.905Z,3.10
2022-08-28T04:07:20.867Z,2.80
2022-08-28T04:08:21.580Z,3.10
2022-08-28T04:09:20.929Z,3.00
2022-08-28T04:10:20.841Z,3.30
2022-08-28T04:11:20.993Z,3.50
2022-08-28T04:12:21.398Z,3.40
2022-08-28T04:13:20.859Z,2.90
2022-08-28T04:14:20.898Z,3.60
2022-08-28T04:15:20.944Z,3.40
2022-08-28T04:16:20.878Z,3.10
2022-08-28T04:17:20.816Z,3.70
2022-08-28T04:18:20.754Z,3.70
2022-08-28T04:19:20.734Z,3.70
2022-08-28T04:20:20.873Z,3.50
2022-08-28T04:21:21.608Z,2.80
2022-08-28T04:22:20.689Z,3.20
2022-08-28T04:23:20.698Z,3.20
2022-08-28T04:24:20.683Z,3.70
2022-08-28T04:25:20.657Z,3.20
2022-08-28T04:26:20.680Z,3.00
2022-08-28T04:27:20.785Z,3.20
2022-08-28T04:28:20.643Z,3.20
2022-08-28T04:29:20.842Z,2.60
2022-08-28T04:30:20.850Z,3.30
2022-08-28T04:31:31.108Z,3.20
2022-08-28T04:32:20.677Z,3.20
2022-08-28T04:33:20.784Z,2.50
2022-08-28T04:34:20.838Z,2.90
2022-08-28T04:35:20.863Z,3.00
2022-08-28T04:36:20.541Z,3.10
2022-08-28T04:37:20.618Z,3.00
2022-08-28T04:38:20.519Z,3.00
2022-08-28T04:39:20.622Z,3.40
2022-08-28T04:40:20.826Z,3.50
2022-08-28T04:41:20.512Z,2.60
2022-08-28T04:42:20.469Z,2.80
2022-08-28T04:43:20.719Z,3.10
2022-08-28T04:44:20.448Z,2.90
2022-08-28T04:45:20.480Z,2.90
2022-08-28T04:46:20.587Z,3.10
2022-08-28T04:47:20.449Z,2.60
2022-08-28T04:48:20.420Z,3.10
2022-08-28T04:49:20.401Z,2.90
2022-08-28T04:50:20.650Z,2.90
2022-08-28T04:51:21.402Z,2.30
2022-08-28T04:52:20.435Z,2.60
2022-08-28T04:53:20.351Z,2.90
2022-08-28T04:54:20.336Z,2.70
2022-08-28T04:55:52.278Z,2.40
2022-08-28T04:56:20.379Z,2.60
2022-08-28T04:57:20.389Z,2.50
2022-08-28T04:58:20.270Z,2.20
2022-08-28T04:59:20.274Z,2.80
2022-08-28T05:00:20.241Z,2.50
2022-08-28T05:01:20.315Z,2.60
2022-08-28T05:02:20.318Z,2.60
2022-08-28T05:03:20.297Z,2.80
2022-08-28T05:04:20.262Z,2.60
2022-08-28T05:05:20.816Z,2.50
2022-08-28T05:06:20.179Z,3.00
2022-08-28T05:07:20.237Z,2.50
2022-08-28T05:08:20.164Z,3.00
2022-08-28T05:09:20.383Z,2.80
2022-08-28T05:10:20.156Z,3.10
2022-08-28T05:11:32.923Z,2.40
2022-08-28T05:12:20.129Z,2.50
2022-08-28T05:13:20.103Z,2.70
2022-08-28T05:14:20.125Z,2.70
2022-08-28T05:15:20.148Z,2.90
2022-08-28T05:16:20.114Z,3.30
2022-08-28T05:17:20.073Z,2.70
2022-08-28T05:18:20.095Z,3.00
2022-08-28T05:19:20.098Z,2.80
2022-08-28T05:20:20.023Z,2.80
2022-08-28T05:21:20.056Z,2.80
2022-08-28T05:22:20.009Z,2.60
2022-08-28T05:23:22.025Z,3.00
2022-08-28T05:24:19.981Z,2.80
2022-08-28T05:25:19.984Z,2.50
2022-08-28T05:26:19.954Z,2.60
2022-08-28T05:27:19.995Z,2.50
2022-08-28T05:28:25.942Z,2.50
2022-08-28T05:29:25.932Z,2.40
2022-08-28T05:30:25.925Z,2.50
2022-08-28T05:31:19.927Z,3.00
2022-08-28T05:32:19.910Z,3.20
2022-08-28T05:33:19.911Z,3.00
2022-08-28T05:34:19.884Z,3.40
2022-08-28T05:35:19.860Z,2.40
2022-08-28T05:36:19.847Z,2.60
2022-08-28T05:37:19.893Z,2.80
2022-08-28T05:38:19.815Z,2.80
2022-08-28T05:39:19.874Z,2.70
2022-08-28T05:40:19.851Z,3.10
2022-08-28T05:41:19.794Z,3.00
2022-08-28T05:42:19.799Z,2.80
2022-08-28T05:43:19.761Z,2.90
2022-08-28T05:44:19.775Z,2.60
2022-08-28T05:45:19.769Z,2.80
2022-08-28T05:46:19.795Z,2.70
2022-08-28T05:47:21.561Z,2.50
2022-08-28T05:48:19.712Z,2.30
2022-08-28T05:49:19.752Z,2.10
2022-08-28T05:50:19.686Z,2.20
2022-08-28T05:51:19.839Z,2.10
2022-08-28T05:52:20.536Z,2.30
2022-08-28T05:53:19.676Z,2.50
2022-08-28T05:54:19.697Z,2.20
2022-08-28T05:55:19.667Z,2.20
2022-08-28T05:56:19.622Z,2.10
2022-08-28T05:57:19.862Z,2.40
2022-08-28T05:58:19.835Z,2.50
2022-08-28T05:59:19.686Z,2.50
2022-08-28T06:00:19.693Z,2.80
2022-08-28T06:01:19.740Z,2.40
2022-08-28T06:02:19.681Z,2.50
2022-08-28T06:03:19.690Z,2.60
2022-08-28T06:04:19.667Z,2.80
2022-08-28T06:05:19.658Z,2.80
2022-08-28T06:06:19.603Z,2.40
2022-08-28T06:07:19.554Z,2.60
2022-08-28T06:08:19.599Z,2.90
2022-08-28T06:09:19.701Z,3.00
2022-08-28T06:10:19.682Z,3.00
2022-08-28T06:11:19.487Z,3.10
2022-08-28T06:12:19.650Z,2.90
2022-08-28T06:13:19.568Z,3.70
2022-08-28T06:14:19.455Z,2.90
2022-08-28T06:15:19.575Z,2.60
2022-08-28T06:16:19.703Z,2.90
2022-08-28T06:17:23.459Z,3.10
2022-08-28T06:18:19.573Z,3.50
2022-08-28T06:19:19.751Z,2.80
2022-08-28T06:20:19.583Z,3.00
2022-08-28T06:21:19.532Z,3.20
2022-08-28T06:22:19.477Z,2.30
2022-08-28T06:23:24.023Z,2.90
2022-08-28T06:24:19.355Z,3.00
2022-08-28T06:25:19.535Z,2.80
2022-08-28T06:26:19.420Z,2.90
2022-08-28T06:27:19.467Z,3.20
2022-08-28T06:28:19.280Z,3.00
2022-08-28T06:29:21.127Z,2.80
2022-08-28T06:30:19.239Z,3.00
2022-08-28T06:31:23.575Z,3.30
2022-08-28T06:32:19.523Z,3.80
2022-08-28T06:33:19.695Z,3.50
2022-08-28T06:34:19.268Z,3.30
2022-08-28T06:35:19.391Z,3.30
2022-08-28T06:36:19.334Z,3.40
2022-08-28T06:37:19.320Z,3.80
2022-08-28T06:38:19.337Z,3.90
2022-08-28T06:39:19.472Z,3.50
2022-08-28T06:40:19.332Z,3.00
2022-08-28T06:41:19.495Z,3.00
2022-08-28T06:42:19.109Z,3.50
2022-08-28T06:43:19.151Z,3.20
2022-08-28T06:44:19.327Z,2.80
2022-08-28T06:45:19.350Z,3.40
2022-08-28T06:46:19.323Z,2.60
2022-08-28T06:47:19.279Z,3.20
2022-08-28T06:48:19.395Z,2.50
2022-08-28T06:49:19.270Z,2.60
2022-08-28T06:50:19.079Z,3.10
2022-08-28T06:51:20.305Z,3.20
2022-08-28T06:52:19.094Z,2.80
2022-08-28T06:53:19.067Z,2.50
2022-08-28T06:54:22.935Z,2.90
2022-08-28T06:55:19.020Z,2.90
2022-08-28T06:56:25.631Z,2.80
2022-08-28T06:57:19.353Z,2.90
2022-08-28T06:58:19.151Z,3.20
2022-08-28T06:59:19.174Z,2.80
2022-08-28T07:00:19.057Z,2.70
2022-08-28T07:01:19.312Z,2.90
2022-08-28T07:02:19.283Z,2.90
2022-08-28T07:03:19.275Z,2.90
2022-08-28T07:04:19.216Z,3.20
2022-08-28T07:05:18.970Z,3.20
2022-08-28T07:06:18.928Z,3.30
2022-08-28T07:07:31.767Z,3.40
2022-08-28T07:08:18.947Z,3.70
2022-08-28T07:09:18.986Z,3.00
2022-08-28T07:10:19.036Z,3.20
2022-08-28T07:11:18.856Z,3.30
2022-08-28T07:12:18.949Z,3.00
2022-08-28T07:13:18.920Z,2.90
2022-08-28T07:14:18.866Z,3.30
2022-08-28T07:15:18.925Z,3.30
2022-08-28T07:16:19.012Z,3.60
2022-08-28T07:17:18.767Z,3.10
2022-08-28T07:18:18.767Z,3.20
2022-08-28T07:19:18.840Z,2.80
2022-08-28T07:20:18.807Z,2.90
2022-08-28T07:21:18.802Z,3.10
2022-08-28T07:22:18.732Z,2.90
2022-08-28T07:23:18.680Z,3.00
2022-08-28T07:24:18.723Z,3.20
2022-08-28T07:25:18.736Z,2.90
2022-08-28T07:26:18.755Z,3.50
2022-08-28T07:27:19.200Z,3.30
2022-08-28T07:28:18.646Z,3.30
2022-08-28T07:29:18.814Z,2.50
2022-08-28T07:30:18.774Z,3.60
2022-08-28T07:31:18.695Z,3.40
2022-08-28T07:32:18.669Z,3.30
2022-08-28T07:33:18.725Z,3.90
2022-08-28T07:34:18.527Z,3.10
2022-08-28T07:35:18.540Z,3.20
2022-08-28T07:36:29.267Z,3.40
2022-08-28T07:37:18.515Z,3.00
2022-08-28T07:38:18.469Z,3.50
2022-08-28T07:39:18.491Z,3.20
2022-08-28T07:40:18.500Z,3.50
2022-08-28T07:41:18.436Z,2.80
2022-08-28T07:42:18.418Z,3.10
2022-08-28T07:43:18.421Z,3.20
2022-08-28T07:44:18.410Z,3.40
2022-08-28T07:45:18.460Z,3.70
2022-08-28T07:46:18.494Z,3.00
2022-08-28T07:47:18.362Z,3.20
2022-08-28T07:48:18.431Z,3.00
2022-08-28T07:49:18.374Z,3.10
2022-08-28T07:50:18.369Z,3.40
2022-08-28T07:51:18.356Z,3.40
2022-08-28T07:52:18.309Z,2.60
2022-08-28T07:53:18.354Z,2.80
2022-08-28T07:54:18.429Z,3.50
2022-08-28T07:55:18.295Z,2.70
2022-08-28T07:56:18.336Z,3.10
2022-08-28T07:57:18.655Z,2.90
2022-08-28T07:58:18.381Z,2.80
2022-08-28T07:59:19.411Z,2.60
2022-08-28T08:00:18.544Z,3.30
2022-08-28T08:01:18.581Z,2.80
2022-08-28T08:02:18.205Z,3.00
2022-08-28T08:03:18.342Z,3.00
2022-08-28T08:04:18.598Z,2.80
2022-08-28T08:05:18.171Z,3.00
2022-08-28T08:06:18.174Z,2.80
2022-08-28T08:07:18.146Z,3.60
2022-08-28T08:08:18.155Z,3.40
2022-08-28T08:09:18.240Z,2.90
2022-08-28T08:10:19.882Z,2.80
2022-08-28T08:11:18.093Z,2.70
2022-08-28T08:12:18.083Z,2.70
2022-08-28T08:13:18.082Z,2.70
2022-08-28T08:14:18.075Z,2.50
2022-08-28T08:15:18.155Z,2.70
2022-08-28T08:16:18.087Z,2.60
2022-08-28T08:17:18.100Z,3.20
2022-08-28T08:18:18.038Z,3.40
2022-08-28T08:19:17.995Z,3.20
2022-08-28T08:20:18.102Z,3.30
2022-08-28T08:21:18.089Z,3.60
2022-08-28T08:22:18.032Z,3.40
2022-08-28T08:23:17.957Z,3.30
2022-08-28T08:24:19.837Z,3.00
2022-08-28T08:25:18.007Z,3.20
2022-08-28T08:26:17.924Z,3.60
2022-08-28T08:27:18.025Z,3.50
2022-08-28T08:28:17.896Z,2.70
2022-08-28T08:29:17.934Z,3.30
2022-08-28T08:30:17.873Z,3.00
2022-08-28T08:31:17.966Z,3.80
2022-08-28T08:32:18.290Z,3.60
2022-08-28T08:33:18.385Z,3.50
2022-08-28T08:34:18.163Z,2.80
2022-08-28T08:35:18.854Z,3.50
2022-08-28T08:36:18.119Z,3.70
2022-08-28T08:37:18.302Z,3.50
2022-08-28T08:38:18.126Z,3.60
2022-08-28T08:39:18.438Z,3.80
2022-08-28T08:40:18.216Z,3.80
2022-08-28T08:41:18.041Z,3.90
2022-08-28T08:42:17.806Z,4.20
2022-08-28T08:43:17.849Z,3.90
2022-08-28T08:44:17.729Z,3.60
2022-08-28T08:45:17.822Z,3.70
2022-08-28T08:46:17.885Z,4.10
2022-08-28T08:47:17.680Z,3.80
2022-08-28T08:48:17.707Z,3.60
2022-08-28T08:49:17.705Z,4.10
2022-08-28T08:50:17.669Z,3.80
2022-08-28T08:51:17.972Z,3.90
2022-08-28T08:52:17.743Z,3.40
2022-08-28T08:53:17.875Z,3.90
2022-08-28T08:54:17.706Z,3.80
2022-08-28T08:55:17.681Z,3.80
2022-08-28T08:56:17.603Z,3.80
2022-08-28T08:57:19.474Z,3.90
2022-08-28T08:58:17.563Z,3.90
2022-08-28T08:59:17.588Z,3.50
2022-08-28T09:00:17.591Z,3.70
2022-08-28T09:01:17.589Z,3.90
2022-08-28T09:02:17.554Z,3.80
2022-08-28T09:03:17.614Z,3.70
2022-08-28T09:04:21.548Z,3.30
2022-08-28T09:05:17.502Z,3.20
2022-08-28T09:06:17.508Z,3.50
2022-08-28T09:07:17.478Z,3.50
2022-08-28T09:08:17.439Z,4.10
2022-08-28T09:09:17.566Z,4.00
2022-08-28T09:10:17.428Z,3.50
2022-08-28T09:11:17.417Z,4.00
2022-08-28T09:12:17.427Z,3.90
2022-08-28T09:13:17.410Z,3.70
2022-08-28T09:14:17.433Z,4.80
2022-08-28T09:15:17.455Z,3.90
2022-08-28T09:16:17.427Z,4.60
2022-08-28T09:17:17.417Z,4.50
2022-08-28T09:18:17.375Z,3.80
2022-08-28T09:19:17.511Z,3.90
2022-08-28T09:20:17.403Z,3.70
2022-08-28T09:21:17.454Z,3.70
2022-08-28T09:22:17.376Z,4.10
2022-08-28T09:23:17.297Z,4.00
2022-08-28T09:24:17.356Z,3.90
2022-08-28T09:25:17.298Z,4.30
2022-08-28T09:26:17.269Z,4.30
2022-08-28T09:27:17.299Z,4.50
2022-08-28T09:28:17.346Z,4.50
2022-08-28T09:29:17.269Z,4.00
2022-08-28T09:30:17.225Z,4.90
2022-08-28T09:31:19.981Z,4.40
2022-08-28T09:32:17.174Z,4.80
2022-08-28T09:33:17.257Z,4.40
2022-08-28T09:34:17.180Z,4.80
2022-08-28T09:35:17.340Z,4.40
2022-08-28T09:36:17.178Z,4.50
2022-08-28T09:37:17.206Z,4.40
2022-08-28T09:38:17.099Z,3.80
2022-08-28T09:39:17.172Z,4.40
2022-08-28T09:40:17.252Z,4.60
2022-08-28T09:41:17.172Z,4.40
2022-08-28T09:42:17.145Z,4.50
2022-08-28T09:43:17.228Z,4.20
2022-08-28T09:44:17.052Z,4.50
2022-08-28T09:45:17.115Z,4.50
2022-08-28T09:46:17.168Z,4.40
2022-08-28T09:47:17.404Z,4.60
2022-08-28T09:48:17.323Z,4.70
2022-08-28T09:49:17.428Z,5.10
2022-08-28T09:50:17.250Z,4.90
2022-08-28T09:51:17.362Z,4.20
2022-08-28T09:52:20.671Z,4.40
2022-08-28T09:53:17.433Z,4.60
2022-08-28T09:54:17.192Z,4.90
2022-08-28T09:55:17.446Z,5.10
2022-08-28T09:56:17.273Z,4.50
2022-08-28T09:57:17.456Z,4.70
2022-08-28T09:58:17.201Z,5.00
2022-08-28T09:59:17.030Z,4.70
2022-08-28T10:00:16.925Z,4.80
2022-08-28T10:01:17.230Z,4.60
2022-08-28T10:02:16.964Z,5.20
2022-08-28T10:03:17.008Z,4.60
2022-08-28T10:04:17.035Z,4.50
2022-08-28T10:05:17.053Z,5.00
2022-08-28T10:06:16.976Z,5.50
2022-08-28T10:07:16.864Z,5.50
2022-08-28T10:08:16.871Z,4.80
2022-08-28T10:09:16.974Z,4.90
2022-08-28T10:10:17.019Z,5.20
2022-08-28T10:11:16.793Z,4.90
2022-08-28T10:12:16.832Z,5.00
2022-08-28T10:13:16.949Z,4.30
2022-08-28T10:14:16.954Z,4.70
2022-08-28T10:15:16.729Z,4.60
2022-08-28T10:16:17.148Z,4.70
2022-08-28T10:17:18.949Z,4.50
2022-08-28T10:18:17.090Z,4.70
2022-08-28T10:19:16.986Z,4.70
2022-08-28T10:20:17.058Z,4.20
2022-08-28T10:21:16.759Z,5.20
2022-08-28T10:22:16.712Z,4.30
2022-08-28T10:23:17.732Z,4.90
2022-08-28T10:24:16.841Z,4.90
2022-08-28T10:25:16.696Z,4.80
2022-08-28T10:26:17.026Z,5.00
2022-08-28T10:27:16.769Z,4.40
2022-08-28T10:28:16.739Z,4.20
2022-08-28T10:29:16.572Z,4.60
2022-08-28T10:30:16.558Z,4.60
2022-08-28T10:31:16.615Z,4.60
2022-08-28T10:32:16.545Z,5.10
2022-08-28T10:33:16.864Z,4.40
2022-08-28T10:34:16.496Z,4.40
2022-08-28T10:35:16.476Z,4.70
2022-08-28T10:36:26.518Z,5.00
2022-08-28T10:37:16.452Z,5.00
2022-08-28T10:38:16.431Z,4.50
2022-08-28T10:39:16.611Z,4.30
2022-08-28T10:40:16.547Z,4.50
2022-08-28T10:41:16.385Z,4.80
2022-08-28T10:42:16.368Z,4.50
2022-08-28T10:43:16.723Z,4.80
2022-08-28T10:44:16.342Z,4.40
2022-08-28T10:45:16.461Z,3.90
2022-08-28T10:46:16.426Z,4.10
2022-08-28T10:47:16.321Z,4.20
2022-08-28T10:48:16.319Z,4.50
2022-08-28T10:49:16.404Z,4.60
2022-08-28T10:50:16.284Z,4.40
2022-08-28T10:51:16.345Z,4.10
2022-08-28T10:52:16.294Z,4.20
2022-08-28T10:53:16.261Z,4.50
2022-08-28T10:54:16.235Z,4.20
2022-08-28T10:55:16.296Z,4.20
2022-08-28T10:56:16.239Z,4.10
2022-08-28T10:57:16.304Z,4.30
2022-08-28T10:58:23.874Z,4.30
2022-08-28T10:59:16.213Z,4.10
2022-08-28T11:00:16.325Z,4.10
2022-08-28T11:01:16.282Z,4.20
2022-08-28T11:02:16.210Z,3.90
2022-08-28T11:03:33.437Z,4.20
2022-08-28T11:04:24.707Z,4.20
2022-08-28T11:05:16.136Z,4.00
2022-08-28T11:06:16.131Z,4.20
2022-08-28T11:07:16.333Z,4.30
2022-08-28T11:08:16.106Z,4.50
2022-08-28T11:09:17.086Z,4.50
2022-08-28T11:10:16.227Z,4.10
2022-08-28T11:11:16.074Z,4.30
2022-08-28T11:12:16.145Z,4.00
2022-08-28T11:13:16.287Z,4.60
2022-08-28T11:14:16.080Z,4.30
2022-08-28T11:15:16.260Z,3.90
2022-08-28T11:16:16.192Z,4.20
2022-08-28T11:17:15.990Z,4.50
2022-08-28T11:18:16.096Z,4.30
2022-08-28T11:19:15.988Z,4.10
2022-08-28T11:20:15.957Z,4.20
2022-08-28T11:21:15.990Z,4.20
2022-08-28T11:22:15.927Z,4.40
2022-08-28T11:23:16.158Z,4.10
2022-08-28T11:24:16.083Z,4.10
2022-08-28T11:25:16.097Z,4.10
2022-08-28T11:26:16.256Z,4.30
2022-08-28T11:27:16.009Z,4.40
2022-08-28T11:28:16.081Z,4.20
2022-08-28T11:29:15.892Z,4.40
2022-08-28T11:30:15.982Z,4.10
2022-08-28T11:31:28.805Z,4.00
2022-08-28T11:32:15.951Z,5.00
2022-08-28T11:33:16.190Z,4.20
2022-08-28T11:34:16.052Z,4.30
2022-08-28T11:35:16.767Z,4.50
2022-08-28T11:36:15.923Z,4.90
2022-08-28T11:37:16.039Z,4.50
2022-08-28T11:38:19.567Z,4.90
2022-08-28T11:39:16.560Z,4.80
2022-08-28T11:40:15.948Z,4.80
2022-08-28T11:41:15.910Z,4.20
2022-08-28T11:42:16.794Z,4.20
2022-08-28T11:43:16.568Z,4.50
2022-08-28T11:44:15.707Z,4.40
2022-08-28T11:45:17.093Z,4.40
2022-08-28T11:46:15.725Z,4.90
2022-08-28T11:47:15.732Z,5.10
2022-08-28T11:48:15.700Z,4.80
2022-08-28T11:49:15.862Z,4.60
2022-08-28T11:50:15.634Z,4.30
2022-08-28T11:51:15.830Z,4.40
2022-08-28T11:52:15.647Z,4.20
2022-08-28T11:53:15.622Z,4.80
2022-08-28T11:54:15.654Z,4.60
2022-08-28T11:55:15.597Z,4.60
2022-08-28T11:56:18.639Z,4.60
2022-08-28T11:57:15.606Z,4.90
2022-08-28T11:58:46.645Z,4.20
2022-08-28T11:59:47.742Z,4.80
2022-08-28T12:00:47.651Z,4.90
2022-08-28T12:01:47.605Z,4.90
2022-08-28T12:02:47.760Z,4.70
2022-08-28T12:03:47.579Z,4.90
2022-08-28T12:04:47.730Z,4.30
2022-08-28T12:05:47.603Z,4.60
2022-08-28T12:06:47.781Z,4.20
2022-08-28T12:07:47.679Z,5.30
2022-08-28T12:08:48.478Z,4.00
2022-08-28T12:09:47.588Z,4.70
2022-08-28T12:10:47.654Z,4.40
2022-08-28T12:11:47.522Z,4.00
2022-08-28T12:12:47.629Z,4.40
2022-08-28T12:13:47.714Z,5.00
2022-08-28T12:14:47.582Z,4.90
2022-08-28T12:15:47.540Z,4.20
2022-08-28T12:16:47.569Z,4.10
2022-08-28T12:17:47.535Z,4.80
2022-08-28T12:18:48.433Z,4.40
2022-08-28T12:19:55.513Z,4.70
2022-08-28T12:20:47.687Z,4.80
2022-08-28T12:21:47.395Z,4.60
2022-08-28T12:22:47.408Z,4.70
2022-08-28T12:23:47.432Z,4.90
2022-08-28T12:24:47.344Z,4.90
2022-08-28T12:25:47.421Z,4.20
2022-08-28T12:26:47.734Z,3.90
2022-08-28T12:27:47.670Z,3.90
2022-08-28T12:28:53.450Z,4.20
2022-08-28T12:29:47.272Z,3.40
2022-08-28T12:30:47.323Z,4.10
2022-08-28T12:31:47.370Z,4.60
2022-08-28T12:32:47.517Z,3.90
2022-08-28T12:33:47.394Z,3.50
2022-08-28T12:34:47.317Z,4.20
2022-08-28T12:35:47.840Z,3.30
2022-08-28T12:36:51.941Z,3.80
2022-08-28T12:37:52.607Z,3.40
2022-08-28T12:38:47.370Z,3.60
2022-08-28T12:39:47.185Z,4.00
2022-08-28T12:40:47.232Z,4.00
2022-08-28T12:41:47.283Z,3.90
2022-08-28T12:42:50.987Z,3.30
2022-08-28T12:43:47.169Z,3.40
2022-08-28T12:44:47.301Z,3.20
2022-08-28T12:45:47.227Z,3.70
2022-08-28T12:46:47.212Z,3.30
2022-08-28T12:47:47.100Z,3.40
2022-08-28T12:48:47.086Z,3.70
2022-08-28T12:49:47.248Z,3.20
2022-08-28T12:50:47.142Z,3.30
2022-08-28T12:51:47.029Z,3.20
2022-08-28T12:52:47.080Z,3.10
2022-08-28T12:53:46.994Z,4.10
2022-08-28T12:54:46.992Z,3.40
2022-08-28T12:55:47.058Z,3.50
2022-08-28T12:56:47.069Z,3.60
2022-08-28T12:57:46.986Z,3.70
2022-08-28T12:58:46.960Z,3.80
2022-08-28T12:59:46.935Z,3.40
2022-08-28T13:00:46.970Z,3.80
2022-08-28T13:01:46.978Z,3.20
2022-08-28T13:02:50.626Z,3.40
2022-08-28T13:03:47.061Z,3.80
2022-08-28T13:04:46.892Z,3.50
2022-08-28T13:05:46.870Z,3.50
2022-08-28T13:06:46.932Z,3.70
2022-08-28T13:07:46.921Z,3.10
2022-08-28T13:08:46.894Z,3.70
2022-08-28T13:09:46.850Z,3.20
2022-08-28T13:10:46.818Z,3.50
2022-08-28T13:11:46.868Z,3.20
2022-08-28T13:12:54.968Z,3.20
2022-08-28T13:13:46.856Z,2.90
2022-08-28T13:14:46.852Z,3.50
2022-08-28T13:15:46.769Z,3.60
2022-08-28T13:16:47.067Z,3.70
2022-08-28T13:17:46.750Z,3.40
2022-08-28T13:18:46.750Z,3.40